Manchester, NH

10:15 PM EST on February 22, 2017 (GMT -0500)
Manchester | | Change Station
Active Advisory: Special Statement

Elev 240 ft 42.93 °N, 71.44 °W | Updated 22 minutes ago

Clear
Clear
39 °F
Feels Like 39 °F
N
0
Wind Variable Wind from North

Today
High -- | Low -- °F
--% Chance of Precip.
Yesterday
High -- | Low -- °F
Precip. -- in
Pressure 29.92 in
Visibility 10.0 miles
Clouds Clear
Dew Point 31 °F
Humidity 73%
Rainfall 0.00 in
Snow Depth Not available.
6:32 AM 5:26 PM
Waning Crescent, 13% visible
METAR KMHT 230253Z 00000KT 10SM CLR 04/M01 A2987 RMK AO2 SLP130 T00391006 58001
Pressure 29.92 in
Visibility 10.0 miles
Clouds Clear
Dew Point 31 °F
Humidity 73%
Rainfall 0.00 in
Snow Depth Not available.
6:32 AM 5:26 PM
Waning Crescent, 13% visible
METAR KMHT 230253Z 00000KT 10SM CLR 04/M01 A2987 RMK AO2 SLP130 T00391006 58001

Get Your Daily Forecast Email!

Thanks for signing up!

Be on the lookout for a verification email in your inbox.

You'll start receiving the daily forecast at 8 AM.

×

10-Day Weather Forecast

Almanac

Astronomy

Feb. 22, 2017 Rise Set
Actual Time
Civil Twilight
Nautical Twilight
Astronomical Twilight
Moon
Length of Visible Light
Length of Day
Tomorrow will be .
, % of the Moon is Illuminated

Today's Extremes

State Highs State Lows

Community

WunderPhotos

Upload Photos

1,962,540 photos uploaded!

WunderBlog® & News

Nearby

Air Quality

  Air Quality AQ Index Pollutant
Not available.

Snow Depth

Station Depth Elevation

Earthquake Activity

City Distance Mag. Time & Date
Minimum magnitude displayed is 2.5.

Coastal Water Temperatures

Place Temperature

Stations

Nearby Weather Stations

Station Location Temp. Windchill Dew Point Humidity Wind Precip. Elev Updated Type
                   

Watches & Warnings

Special Statement
Issued: 7:21 PM EST Feb. 22, 2017 – National Weather Service

... Icy spots on area roadways tonight...

A significant amount of melting has resulted in wet pavement
across much of the area. As temperatures fall rapidly this
evening... some areas of icing will develop... particularly on back
roads. Motorists are encouraged to use caution and be prepared
for areas of slick travel.


Arnott


721 PM EST Wed Feb 22 2017

... Icy spots on area roadways tonight...

A significant amount of melting has resulted in wet pavement
across much of the area. As temperatures fall rapidly this
evening... some areas of icing will develop... particularly on back
roads. Motorists are encouraged to use caution and be prepared
for areas of slick travel.


Arnott